world map with SPAY marked

SPAY - Airport

This information may not be accurate or current and is not valid for navigation or flight planning. No warranty of fitness for any purpose is made or implied.

flag of Ucayaliflag of Perú

Donate via PayPal

Additional information is available on the NEW Great Circle Mapper

Location
City:  Atalaya, Ucayali, Perú
Name:Teniente General Gerardo Pérez Pinedo Airport
ICAO:SPAY

Details
Type:Airport (Aerodrome, Airfield)
Use:Public/Civil
Latitude:10°43'43"S (-10.728610)
Longitude:73°45'58"W (-73.766110)
Elevation:1900 ft (579 m)
Runways:1
Longest:4921 × 98 ft (1500 × 30 m)

Time
Timezone:UTC+29:08 (DST+31:08)
Local Time:

Weather
METAR:SPAY  031917Z 02010G20KT 5000 RA BKN012 OVC070 25/24 Q1013

Related Locations
Nearby:
Farthest:SGN: 12422 mi / 19991 km
Ho Chi Minh City (Saigon) [Tan Son Nhat Intl], VN

Find:

   beyond  
but within

Other Information
Maps:
Sources:

  


 


Great Circle Mapper   Great Circle Mapper
Great Circle Mapper FAQ   Great Circle Mapper FAQ
  Karl's Home Page
KLS˛   KLS˛ Home
   GC on Facebook
Airlines of the World   Airlines of the World
Donate via PayPal


Copyright © 2004-2020, Karl L. Swartz. All rights reserved.
All trademarks mentioned herein belong to their respective owners.

Please see credits for attribution and copyright information.

Karl Swartz <karl@kls2.com>
  Powered by FreeBSD
Valid HTML 4.01!
Labeled with ICRA
hCard Microformat
Geo Microformat